createdAt,value
2022-07-28T00:00:12.822Z,14.27
2022-07-28T00:03:00.772Z,14.34
2022-07-28T00:05:28.334Z,14.26
2022-07-28T00:07:56.435Z,14.21
2022-07-28T00:10:23.834Z,14.06
2022-07-28T00:12:51.286Z,14.18
2022-07-28T00:15:18.469Z,14.26
2022-07-28T00:17:45.636Z,14.18
2022-07-28T00:20:13.060Z,14.16
2022-07-28T00:22:43.932Z,14.08
2022-07-28T00:25:12.149Z,14.05
2022-07-28T00:27:39.601Z,14.08
2022-07-28T00:30:07.870Z,13.85
2022-07-28T00:32:35.099Z,13.90
2022-07-28T00:35:02.630Z,13.92
2022-07-28T00:37:29.873Z,13.91
2022-07-28T00:39:57.466Z,13.99
2022-07-28T00:42:24.944Z,13.98
2022-07-28T00:44:52.179Z,13.84
2022-07-28T00:47:20.261Z,13.95
2022-07-28T00:49:48.396Z,14.05
2022-07-28T00:52:17.171Z,14.01
2022-07-28T00:54:44.571Z,14.02
2022-07-28T00:57:11.983Z,13.96
2022-07-28T00:59:39.151Z,14.04
2022-07-28T01:02:06.888Z,13.98
2022-07-28T01:04:34.693Z,14.14
2022-07-28T01:07:17.085Z,14.06
2022-07-28T01:10:03.579Z,14.19
2022-07-28T01:12:45.971Z,14.20
2022-07-28T01:15:36.291Z,14.11
2022-07-28T01:18:23.351Z,14.04
2022-07-28T01:20:54.496Z,14.03
2022-07-28T01:23:33.565Z,14.04
2022-07-28T01:26:24.888Z,14.11
2022-07-28T01:29:07.017Z,14.08
2022-07-28T01:31:40.135Z,13.99
2022-07-28T01:34:12.910Z,14.15
2022-07-28T01:36:45.552Z,14.10
2022-07-28T01:39:15.341Z,14.04
2022-07-28T01:41:44.444Z,14.10
2022-07-28T01:44:20.296Z,14.20
2022-07-28T01:46:49.172Z,14.33
2022-07-28T01:49:18.359Z,14.18
2022-07-28T01:51:47.470Z,14.18
2022-07-28T01:54:17.300Z,14.26
2022-07-28T01:56:47.082Z,14.04
2022-07-28T01:59:15.586Z,14.26
2022-07-28T02:01:45.868Z,14.16
2022-07-28T02:04:15.783Z,14.03
2022-07-28T02:06:46.976Z,14.11
2022-07-28T02:09:14.951Z,14.18
2022-07-28T02:11:43.179Z,14.26
2022-07-28T02:14:17.107Z,14.29
2022-07-28T02:17:08.700Z,14.18
2022-07-28T02:19:37.680Z,14.15
2022-07-28T02:22:07.016Z,14.27
2022-07-28T02:24:35.558Z,14.29
2022-07-28T02:27:18.362Z,14.26
2022-07-28T02:29:51.849Z,14.25
2022-07-28T02:32:33.073Z,14.20
2022-07-28T02:35:12.160Z,14.27
2022-07-28T02:37:46.085Z,14.12
2022-07-28T02:40:16.561Z,14.17
2022-07-28T02:42:48.281Z,14.22
2022-07-28T02:45:17.067Z,14.03
2022-07-28T02:47:52.157Z,14.06
2022-07-28T02:50:24.633Z,14.03
2022-07-28T02:52:56.986Z,14.02
2022-07-28T02:55:25.267Z,14.02
2022-07-28T02:57:56.852Z,14.06
2022-07-28T03:00:25.948Z,14.12
2022-07-28T03:02:55.363Z,14.26
2022-07-28T03:05:23.238Z,14.20
2022-07-28T03:07:52.905Z,14.15
2022-07-28T03:10:32.885Z,14.22
2022-07-28T03:13:05.399Z,14.29
2022-07-28T03:15:36.259Z,14.35
2022-07-28T03:18:05.168Z,14.61
2022-07-28T03:20:33.090Z,14.53
2022-07-28T03:23:00.985Z,14.64
2022-07-28T03:25:50.557Z,14.66
2022-07-28T03:28:21.422Z,14.81
2022-07-28T03:30:54.684Z,14.92
2022-07-28T03:33:22.181Z,14.96
2022-07-28T03:35:52.505Z,14.96
2022-07-28T03:38:45.765Z,15.03
2022-07-28T03:41:15.149Z,14.86
2022-07-28T03:43:44.006Z,14.88
2022-07-28T03:46:13.255Z,15.01
2022-07-28T03:48:41.309Z,14.96
2022-07-28T03:51:09.095Z,15.03
2022-07-28T03:53:36.858Z,15.03
2022-07-28T03:56:04.944Z,14.92
2022-07-28T03:58:32.205Z,15.07
2022-07-28T04:00:59.486Z,15.21
2022-07-28T04:03:42.512Z,15.38
2022-07-28T04:06:15.753Z,15.43
2022-07-28T04:08:44.941Z,15.47
2022-07-28T04:11:12.737Z,15.71
2022-07-28T04:13:39.992Z,15.95
2022-07-28T04:16:07.671Z,15.95
2022-07-28T04:18:35.615Z,16.25
2022-07-28T04:21:03.124Z,16.57
2022-07-28T04:23:31.064Z,16.64
2022-07-28T04:25:58.402Z,16.57
2022-07-28T04:28:25.821Z,16.85
2022-07-28T04:30:53.396Z,17.13
2022-07-28T04:33:20.746Z,17.49
2022-07-28T04:35:48.117Z,17.55
2022-07-28T04:38:18.115Z,17.49
2022-07-28T04:40:49.033Z,17.27
2022-07-28T04:43:16.748Z,16.99
2022-07-28T04:45:54.069Z,16.85
2022-07-28T04:48:23.577Z,16.64
2022-07-28T04:50:53.043Z,16.50
2022-07-28T04:53:22.518Z,16.35
2022-07-28T04:55:53.514Z,16.32
2022-07-28T04:58:23.094Z,16.23
2022-07-28T05:00:50.815Z,16.30
2022-07-28T05:03:19.793Z,16.35
2022-07-28T05:05:54.025Z,16.33
2022-07-28T05:08:25.837Z,16.27
2022-07-28T05:10:54.701Z,16.02
2022-07-28T05:13:21.906Z,16.04
2022-07-28T05:15:49.310Z,16.10
2022-07-28T05:18:16.566Z,16.10
2022-07-28T05:20:43.764Z,16.01
2022-07-28T05:23:12.835Z,15.87
2022-07-28T05:25:40.188Z,16.11
2022-07-28T05:28:07.393Z,15.99
2022-07-28T05:30:37.048Z,15.99
2022-07-28T05:33:04.526Z,15.94
2022-07-28T05:35:31.727Z,15.57
2022-07-28T05:37:59.246Z,15.88
2022-07-28T05:40:27.398Z,16.03
2022-07-28T05:42:54.883Z,16.22
2022-07-28T05:45:22.444Z,16.16
2022-07-28T05:47:52.799Z,16.14
2022-07-28T05:50:25.398Z,16.36
2022-07-28T05:52:52.956Z,16.35
2022-07-28T05:55:20.245Z,16.30
2022-07-28T05:57:47.522Z,16.56
2022-07-28T06:00:19.742Z,16.65
2022-07-28T06:02:49.628Z,16.66
2022-07-28T06:05:19.487Z,16.77
2022-07-28T06:07:48.124Z,16.91
2022-07-28T06:10:21.342Z,16.92
2022-07-28T06:12:50.944Z,16.90
2022-07-28T06:15:21.758Z,16.74
2022-07-28T06:17:52.760Z,16.85
2022-07-28T06:20:24.038Z,16.92
2022-07-28T06:22:55.415Z,17.11
2022-07-28T06:25:25.209Z,17.19
2022-07-28T06:27:55.153Z,17.27
2022-07-28T06:30:23.314Z,17.94
2022-07-28T06:32:50.916Z,18.05
2022-07-28T06:35:19.309Z,18.71
2022-07-28T06:37:48.185Z,18.35
2022-07-28T06:40:17.111Z,18.50
2022-07-28T06:42:45.703Z,18.98
2022-07-28T06:45:20.733Z,19.28
2022-07-28T06:47:50.039Z,20.48
2022-07-28T06:50:26.163Z,21.33
2022-07-28T06:52:56.721Z,21.79
2022-07-28T06:55:24.116Z,22.39
2022-07-28T06:57:51.616Z,23.06
2022-07-28T07:00:19.156Z,24.78
2022-07-28T07:02:46.443Z,27.06
2022-07-28T07:05:14.100Z,27.93
2022-07-28T07:07:43.512Z,29.66
2022-07-28T07:10:11.898Z,31.17
2022-07-28T07:12:39.568Z,30.35
2022-07-28T07:15:07.888Z,29.31
2022-07-28T07:17:37.472Z,26.95
2022-07-28T07:20:06.458Z,26.86
2022-07-28T07:22:34.019Z,26.03
2022-07-28T07:25:13.917Z,25.35
2022-07-28T07:27:41.326Z,25.03
2022-07-28T07:30:09.868Z,24.12
2022-07-28T07:32:37.864Z,24.01
2022-07-28T07:35:06.457Z,23.40
2022-07-28T07:37:33.763Z,22.81
2022-07-28T07:40:02.253Z,23.26
2022-07-28T07:42:29.663Z,22.46
2022-07-28T07:44:56.918Z,23.21
2022-07-28T07:47:24.253Z,23.29
2022-07-28T07:49:51.857Z,22.91
2022-07-28T07:52:19.298Z,22.52
2022-07-28T07:54:46.874Z,23.64
2022-07-28T07:57:14.378Z,24.73
2022-07-28T07:59:41.881Z,25.78
2022-07-28T08:02:09.445Z,25.41
2022-07-28T08:04:37.744Z,25.70
2022-07-28T08:07:06.423Z,24.49
2022-07-28T08:09:34.715Z,25.38
2022-07-28T08:12:02.370Z,25.58
2022-07-28T08:14:29.769Z,24.41
2022-07-28T08:16:59.308Z,24.62
2022-07-28T08:19:26.939Z,26.10
2022-07-28T08:21:55.719Z,25.97
2022-07-28T08:24:33.770Z,27.60
2022-07-28T08:27:03.069Z,27.06
2022-07-28T08:29:30.606Z,26.73
2022-07-28T08:31:57.999Z,25.48
2022-07-28T08:34:27.966Z,26.48
2022-07-28T08:37:05.694Z,27.82
2022-07-28T08:39:34.908Z,27.31
2022-07-28T08:42:11.135Z,25.99
2022-07-28T08:44:50.935Z,25.21
2022-07-28T08:47:19.740Z,25.17
2022-07-28T08:49:49.396Z,23.98
2022-07-28T08:52:21.773Z,23.60
2022-07-28T08:54:50.929Z,23.96
2022-07-28T08:57:26.580Z,25.08
2022-07-28T08:59:54.957Z,25.34
2022-07-28T09:02:23.670Z,24.51
2022-07-28T09:04:51.238Z,24.16
2022-07-28T09:07:18.979Z,23.61
2022-07-28T09:09:49.479Z,23.25
2022-07-28T09:12:17.514Z,23.90
2022-07-28T09:14:44.969Z,26.64
2022-07-28T09:17:12.528Z,29.15
2022-07-28T09:19:39.842Z,30.91
2022-07-28T09:22:07.616Z,31.33
2022-07-28T09:24:41.243Z,28.29
2022-07-28T09:27:13.409Z,27.12
2022-07-28T09:29:44.855Z,25.40
2022-07-28T09:32:14.510Z,23.93
2022-07-28T09:34:44.013Z,23.27
2022-07-28T09:37:26.860Z,22.72
2022-07-28T09:39:59.836Z,22.32
2022-07-28T09:42:46.479Z,22.08
2022-07-28T09:45:22.903Z,22.44
2022-07-28T09:48:08.247Z,23.40
2022-07-28T09:50:35.897Z,23.11
2022-07-28T09:53:27.264Z,22.56
2022-07-28T09:56:02.463Z,23.39
2022-07-28T09:58:30.461Z,24.50
2022-07-28T10:01:13.237Z,24.92
2022-07-28T10:03:42.969Z,24.86
2022-07-28T10:06:23.465Z,25.06
2022-07-28T10:08:52.537Z,24.53
2022-07-28T10:11:26.807Z,24.27
2022-07-28T10:13:55.365Z,23.60
2022-07-28T10:16:26.219Z,23.47
2022-07-28T10:18:53.612Z,23.25
2022-07-28T10:21:23.861Z,22.96
2022-07-28T10:23:56.961Z,22.97
2022-07-28T10:26:38.217Z,22.52
2022-07-28T10:29:07.868Z,22.56
2022-07-28T10:31:44.884Z,22.81
2022-07-28T10:34:24.836Z,21.92
2022-07-28T10:36:56.850Z,22.13
2022-07-28T10:39:31.956Z,22.52
2022-07-28T10:41:59.730Z,22.61
2022-07-28T10:44:28.169Z,22.62
2022-07-28T10:46:57.241Z,22.53
2022-07-28T10:49:32.343Z,21.45
2022-07-28T10:52:02.374Z,22.33
2022-07-28T10:54:41.043Z,22.92
2022-07-28T10:57:12.056Z,24.12
2022-07-28T11:00:25.893Z,24.67
2022-07-28T11:02:53.413Z,24.74
2022-07-28T11:05:37.217Z,24.42
2022-07-28T11:08:04.673Z,24.13
2022-07-28T11:10:44.284Z,24.12
2022-07-28T11:13:32.756Z,25.20
2022-07-28T11:16:15.860Z,24.97
2022-07-28T11:23:46.165Z,23.84
2022-07-28T11:26:27.704Z,23.93
2022-07-28T11:28:57.888Z,23.86
2022-07-28T11:31:46.961Z,23.99
2022-07-28T11:34:17.466Z,24.69
2022-07-28T11:37:06.153Z,24.53
2022-07-28T11:39:42.726Z,24.68
2022-07-28T11:42:29.783Z,24.43
2022-07-28T11:45:26.490Z,24.16
2022-07-28T11:48:19.093Z,24.00
2022-07-28T11:51:16.107Z,23.90
2022-07-28T11:53:49.718Z,24.17
2022-07-28T11:56:23.189Z,24.00
2022-07-28T11:59:18.104Z,23.84
2022-07-28T12:01:53.399Z,23.96
2022-07-28T12:04:27.511Z,23.99
2022-07-28T12:06:56.041Z,23.91
2022-07-28T12:09:39.770Z,23.84
2022-07-28T12:12:09.196Z,23.52
2022-07-28T12:14:40.198Z,23.63
2022-07-28T12:17:07.595Z,23.69
2022-07-28T12:19:34.994Z,23.74
2022-07-28T12:22:15.732Z,23.86
2022-07-28T12:24:45.804Z,23.61
2022-07-28T12:27:14.772Z,23.63
2022-07-28T12:29:42.731Z,23.34
2022-07-28T12:32:10.577Z,23.20
2022-07-28T12:34:40.670Z,23.27
2022-07-28T12:37:12.481Z,23.63
2022-07-28T12:39:42.706Z,22.83
2022-07-28T12:42:12.290Z,22.64
2022-07-28T12:44:42.407Z,22.54
2022-07-28T12:47:12.791Z,22.47
2022-07-28T12:49:42.707Z,22.25
2022-07-28T12:54:53.596Z,21.78
2022-07-28T12:57:44.550Z,21.57
2022-07-28T13:00:19.346Z,21.32
2022-07-28T13:02:48.499Z,21.43
2022-07-28T13:05:55.300Z,21.94
2022-07-28T13:08:24.740Z,21.81
2022-07-28T13:10:57.170Z,21.99
2022-07-28T13:13:27.158Z,22.34
2022-07-28T13:16:16.750Z,22.59
2022-07-28T13:18:51.261Z,22.71
2022-07-28T13:21:58.194Z,22.98
2022-07-28T13:24:28.747Z,22.94
2022-07-28T13:26:57.387Z,22.90
2022-07-28T13:29:25.205Z,22.89
2022-07-28T13:31:54.904Z,23.42
2022-07-28T13:34:22.428Z,23.49
2022-07-28T13:36:49.651Z,23.23
2022-07-28T13:39:17.082Z,23.20
2022-07-28T13:41:56.421Z,23.10
2022-07-28T13:44:27.963Z,22.58
2022-07-28T13:46:56.141Z,22.30
2022-07-28T13:49:24.356Z,22.30
2022-07-28T13:51:51.840Z,22.43
2022-07-28T13:54:20.816Z,22.59
2022-07-28T13:56:49.175Z,22.56
2022-07-28T13:59:16.883Z,22.51
2022-07-28T14:01:49.878Z,22.88
2022-07-28T14:04:18.858Z,23.07
2022-07-28T14:06:49.195Z,23.12
2022-07-28T14:09:18.214Z,23.31
2022-07-28T14:11:49.379Z,23.42
2022-07-28T14:14:25.067Z,23.56
2022-07-28T14:16:54.514Z,23.50
2022-07-28T14:19:37.749Z,23.24
2022-07-28T14:22:13.178Z,23.28
2022-07-28T14:24:42.543Z,23.32
2022-07-28T14:27:11.303Z,23.16
2022-07-28T14:29:39.445Z,22.94
2022-07-28T14:32:07.275Z,22.70
2022-07-28T14:34:35.452Z,22.38
2022-07-28T14:37:05.793Z,21.97
2022-07-28T14:39:38.269Z,21.71
2022-07-28T14:42:06.696Z,21.16
2022-07-28T14:44:34.437Z,20.94
2022-07-28T14:47:02.319Z,21.01
2022-07-28T14:49:29.747Z,21.01
2022-07-28T14:51:57.956Z,20.95
2022-07-28T14:54:25.875Z,20.77
2022-07-28T14:56:53.107Z,20.77
2022-07-28T14:59:20.335Z,20.74
2022-07-28T15:01:48.830Z,20.89
2022-07-28T15:04:17.440Z,20.95
2022-07-28T15:06:45.375Z,21.14
2022-07-28T15:09:13.871Z,21.21
2022-07-28T15:11:42.068Z,21.48
2022-07-28T15:14:09.341Z,21.86
2022-07-28T15:16:36.869Z,22.06
2022-07-28T15:19:05.023Z,22.09
2022-07-28T15:21:36.346Z,22.05
2022-07-28T15:24:04.813Z,22.12
2022-07-28T15:26:32.155Z,21.86
2022-07-28T15:28:59.516Z,21.42
2022-07-28T15:31:27.396Z,21.41
2022-07-28T15:33:58.244Z,21.43
2022-07-28T15:36:25.820Z,21.42
2022-07-28T15:38:53.846Z,21.43
2022-07-28T15:41:21.164Z,21.38
2022-07-28T15:43:48.481Z,21.18
2022-07-28T15:46:16.148Z,21.11
2022-07-28T15:48:44.710Z,21.08
2022-07-28T15:51:12.334Z,21.16
2022-07-28T15:53:41.302Z,21.08
2022-07-28T15:56:08.978Z,21.00
2022-07-28T15:58:36.664Z,20.77
2022-07-28T16:01:04.233Z,20.37
2022-07-28T16:03:31.462Z,20.28
2022-07-28T16:05:59.067Z,20.42
2022-07-28T16:08:27.351Z,20.10
2022-07-28T16:10:55.102Z,20.18
2022-07-28T16:13:32.827Z,20.12
2022-07-28T16:16:14.869Z,19.94
2022-07-28T16:18:44.106Z,19.84
2022-07-28T16:21:11.863Z,19.54
2022-07-28T16:23:39.166Z,19.40
2022-07-28T16:26:08.743Z,19.40
2022-07-28T16:28:36.815Z,19.21
2022-07-28T16:31:04.464Z,19.05
2022-07-28T16:33:33.614Z,18.94
2022-07-28T16:36:02.536Z,19.06
2022-07-28T16:38:30.242Z,19.17
2022-07-28T16:40:57.565Z,19.34
2022-07-28T16:43:25.007Z,19.36
2022-07-28T16:45:52.253Z,19.25
2022-07-28T16:48:19.523Z,19.26
2022-07-28T16:50:47.021Z,19.30
2022-07-28T16:53:14.298Z,19.26
2022-07-28T16:55:47.009Z,19.24
2022-07-28T16:58:15.199Z,19.13
2022-07-28T17:00:42.422Z,19.19
2022-07-28T17:03:11.008Z,18.97
2022-07-28T17:05:38.949Z,18.80
2022-07-28T17:08:06.275Z,18.89
2022-07-28T17:10:33.525Z,18.73
2022-07-28T17:13:01.014Z,18.75
2022-07-28T17:15:28.240Z,18.71
2022-07-28T17:17:58.168Z,18.59
2022-07-28T17:20:25.701Z,18.51
2022-07-28T17:22:52.993Z,18.37
2022-07-28T17:25:59.245Z,18.43
2022-07-28T17:28:07.888Z,18.40
2022-07-28T17:30:35.948Z,18.30
2022-07-28T17:33:08.783Z,18.33
2022-07-28T17:35:37.313Z,18.36
2022-07-28T17:38:06.972Z,18.41
2022-07-28T17:40:34.455Z,18.39
2022-07-28T17:43:01.952Z,18.30
2022-07-28T17:45:29.574Z,18.26
2022-07-28T17:47:56.806Z,18.42
2022-07-28T17:50:24.236Z,18.48
2022-07-28T17:52:51.457Z,18.26
2022-07-28T17:56:00.758Z,18.17
2022-07-28T17:58:32.322Z,18.12
2022-07-28T18:01:10.282Z,18.29
2022-07-28T18:03:59.836Z,18.23
2022-07-28T18:06:32.710Z,18.03
2022-07-28T18:09:07.392Z,18.00
2022-07-28T18:11:56.834Z,18.00
2022-07-28T18:14:30.418Z,17.80
2022-07-28T18:16:58.511Z,17.81
2022-07-28T18:19:26.723Z,17.77
2022-07-28T18:21:54.248Z,17.78
2022-07-28T18:24:22.593Z,17.42
2022-07-28T18:26:51.713Z,17.39
2022-07-28T18:29:21.130Z,17.25
2022-07-28T18:31:51.020Z,17.35
2022-07-28T18:34:19.205Z,17.67
2022-07-28T18:36:50.829Z,17.45
2022-07-28T18:39:18.211Z,17.65
2022-07-28T18:41:47.818Z,17.63
2022-07-28T18:44:19.834Z,17.46
2022-07-28T18:46:47.777Z,17.41
2022-07-28T18:49:15.349Z,17.32
2022-07-28T18:51:44.976Z,17.14
2022-07-28T18:54:18.657Z,16.96
2022-07-28T18:56:49.507Z,16.88
2022-07-28T18:59:16.932Z,16.80
2022-07-28T19:01:44.433Z,16.84
2022-07-28T19:04:12.872Z,16.78
2022-07-28T19:06:40.484Z,16.94
2022-07-28T19:09:07.847Z,16.83
2022-07-28T19:11:35.312Z,16.63
2022-07-28T19:14:02.496Z,16.82
2022-07-28T19:16:29.798Z,16.66
2022-07-28T19:18:57.619Z,16.58
2022-07-28T19:21:24.831Z,16.58
2022-07-28T19:23:53.100Z,16.54
2022-07-28T19:26:21.700Z,16.57
2022-07-28T19:28:48.923Z,16.65
2022-07-28T19:31:16.311Z,16.52
2022-07-28T19:33:44.302Z,16.44
2022-07-28T19:36:15.704Z,16.51
2022-07-28T19:38:44.120Z,16.36
2022-07-28T19:41:16.490Z,16.41
2022-07-28T19:43:43.687Z,16.14
2022-07-28T19:46:11.781Z,15.95
2022-07-28T19:48:39.593Z,15.90
2022-07-28T19:51:06.999Z,15.80
2022-07-28T19:53:35.788Z,15.68
2022-07-28T19:56:08.911Z,15.53
2022-07-28T19:58:37.014Z,15.43
2022-07-28T20:01:05.368Z,15.37
2022-07-28T20:04:01.862Z,15.32
2022-07-28T20:06:25.097Z,15.25
2022-07-28T20:08:54.298Z,15.32
2022-07-28T20:11:21.673Z,15.41
2022-07-28T20:13:49.602Z,15.33
2022-07-28T20:16:17.979Z,15.23
2022-07-28T20:18:45.243Z,15.17
2022-07-28T20:21:12.593Z,15.13
2022-07-28T20:23:41.086Z,15.03
2022-07-28T20:26:10.139Z,15.05
2022-07-28T20:28:38.167Z,15.05
2022-07-28T20:31:07.467Z,15.02
2022-07-28T20:33:34.708Z,14.96
2022-07-28T20:36:01.912Z,14.90
2022-07-28T20:38:29.303Z,14.92
2022-07-28T20:40:56.801Z,14.84
2022-07-28T20:43:24.108Z,14.75
2022-07-28T20:46:05.388Z,14.67
2022-07-28T20:48:33.003Z,14.61
2022-07-28T20:51:00.456Z,14.55
2022-07-28T20:53:28.030Z,14.60
2022-07-28T20:55:55.249Z,14.58
2022-07-28T20:58:22.521Z,14.56
2022-07-28T21:00:51.595Z,14.45
2022-07-28T21:03:19.311Z,14.40
2022-07-28T21:05:46.514Z,14.36
2022-07-28T21:08:17.029Z,14.39
2022-07-28T21:10:46.020Z,14.35
2022-07-28T21:13:13.261Z,14.30
2022-07-28T21:15:40.738Z,14.19
2022-07-28T21:18:08.070Z,14.17
2022-07-28T21:20:35.505Z,14.11
2022-07-28T21:23:03.623Z,14.06
2022-07-28T21:25:31.970Z,14.03
2022-07-28T21:28:17.854Z,14.01
2022-07-28T21:30:46.010Z,13.91
2022-07-28T21:33:13.809Z,13.86
2022-07-28T21:35:50.771Z,13.86
2022-07-28T21:38:18.081Z,13.82
2022-07-28T21:40:45.303Z,13.81
2022-07-28T21:43:12.790Z,13.79
2022-07-28T21:45:40.147Z,13.73
2022-07-28T21:48:07.577Z,13.72
2022-07-28T21:50:37.265Z,13.69
2022-07-28T21:53:04.769Z,13.64
2022-07-28T21:55:31.981Z,13.60
2022-07-28T21:57:59.503Z,13.65
2022-07-28T22:00:26.807Z,13.62
2022-07-28T22:02:54.016Z,13.58
2022-07-28T22:05:21.645Z,13.53
2022-07-28T22:07:49.203Z,13.53
2022-07-28T22:10:17.553Z,13.57
2022-07-28T22:12:48.044Z,13.51
2022-07-28T22:15:15.527Z,13.52
2022-07-28T22:17:43.033Z,13.48
2022-07-28T22:20:11.033Z,13.49
2022-07-28T22:22:38.457Z,13.46
2022-07-28T22:25:06.373Z,13.43
2022-07-28T22:27:33.797Z,13.36
2022-07-28T22:30:01.282Z,13.37
2022-07-28T22:32:29.270Z,13.32
2022-07-28T22:34:58.329Z,13.30
2022-07-28T22:37:25.715Z,13.33
2022-07-28T22:39:53.102Z,13.32
2022-07-28T22:42:20.519Z,13.31
2022-07-28T22:44:48.664Z,13.28
2022-07-28T22:47:16.088Z,13.29
2022-07-28T22:49:43.611Z,13.31
2022-07-28T22:52:10.832Z,13.28
2022-07-28T22:54:39.657Z,13.26
2022-07-28T22:57:07.219Z,13.25
2022-07-28T22:59:38.593Z,13.23
2022-07-28T23:02:07.996Z,13.22
2022-07-28T23:04:38.964Z,13.15
2022-07-28T23:07:12.283Z,13.16
2022-07-28T23:09:41.602Z,13.13
2022-07-28T23:12:10.071Z,13.13
2022-07-28T23:14:37.315Z,13.09
2022-07-28T23:17:05.553Z,13.06
2022-07-28T23:19:32.842Z,13.05
2022-07-28T23:22:00.077Z,13.05
2022-07-28T23:24:27.495Z,13.04
2022-07-28T23:26:54.753Z,13.02
2022-07-28T23:29:22.509Z,13.01
2022-07-28T23:31:50.051Z,12.93
2022-07-28T23:34:17.569Z,12.94
2022-07-28T23:36:45.446Z,12.92
2022-07-28T23:39:14.307Z,12.87
2022-07-28T23:41:41.507Z,12.89
2022-07-28T23:44:08.848Z,12.88
2022-07-28T23:46:36.361Z,12.84
2022-07-28T23:49:03.638Z,12.86
2022-07-28T23:51:46.894Z,12.85
2022-07-28T23:54:16.779Z,12.84
2022-07-28T23:56:44.866Z,12.89
2022-07-28T23:59:14.367Z,12.89
